HAZ814 ZSPD-RJTT
Flight info
| Callsign | HAZ814 |
|---|---|
| Flight time | N/A |
| Altitude | 37000 |
| Route | LAM94D LAMEN A593 SADLI Y590 BEDAR Y591 FUE Y23 ARTIC Y71 XAC |
| Aircraft | A321/M-SDE3FGHIRWY/LB1 |
Departure
| Time | 2026-04-30 12:46 |
|---|---|
| Airport | Shanghai Pudong International Airport (ZSPD) |
Arrival
| Time | N/A |
|---|---|
| Airport | Tokyo Haneda International Airport (RJTT) |
| Time | Latitude | Longitude | Altitude | Speed | Heading |
|---|---|---|---|---|---|
| 2026-04-30 12:10 | 31.15282 | 121.80760 | 23 ft | 0 kts | 252° |
| 2026-04-30 12:36 | 31.15288 | 121.80781 | 23 ft | 4 kts | 252° |
| 2026-04-30 12:36 | 31.15296 | 121.80811 | 25 ft | 4 kts | 256° |
| 2026-04-30 12:36 | 31.15298 | 121.80841 | 25 ft | 4 kts | 290° |
| 2026-04-30 12:36 | 31.15283 | 121.80863 | 26 ft | 4 kts | 335° |
| 2026-04-30 12:37 | 31.15263 | 121.80872 | 25 ft | 4 kts | 342° |
| 2026-04-30 12:37 | 31.15252 | 121.80876 | 25 ft | 0 kts | 342° |
| 2026-04-30 12:39 | 31.15259 | 121.80873 | 23 ft | 4 kts | 342° |
| 2026-04-30 12:39 | 31.15316 | 121.80852 | 25 ft | 11 kts | 342° |
| 2026-04-30 12:40 | 31.15387 | 121.80825 | 24 ft | 12 kts | 342° |
| 2026-04-30 12:40 | 31.15484 | 121.80788 | 23 ft | 17 kts | 342° |
| 2026-04-30 12:40 | 31.15599 | 121.80745 | 23 ft | 17 kts | 342° |
| 2026-04-30 12:40 | 31.15670 | 121.80762 | 23 ft | 9 kts | 59° |
| 2026-04-30 12:41 | 31.15694 | 121.80839 | 23 ft | 11 kts | 71° |
| 2026-04-30 12:41 | 31.15716 | 121.80917 | 24 ft | 10 kts | 72° |
| 2026-04-30 12:41 | 31.15737 | 121.80991 | 22 ft | 10 kts | 72° |
| 2026-04-30 12:41 | 31.15759 | 121.81072 | 22 ft | 11 kts | 72° |
| 2026-04-30 12:42 | 31.15765 | 121.81092 | 22 ft | 0 kts | 72° |
| 2026-04-30 12:42 | 31.15767 | 121.81100 | 22 ft | 4 kts | 72° |
| 2026-04-30 12:43 | 31.15786 | 121.81169 | 22 ft | 11 kts | 73° |
| 2026-04-30 12:43 | 31.15753 | 121.81232 | 21 ft | 9 kts | 153° |
| 2026-04-30 12:43 | 31.15713 | 121.81250 | 23 ft | 0 kts | 162° |
| 2026-04-30 12:45 | 31.15604 | 121.81291 | 21 ft | 45 kts | 162° |
| 2026-04-30 12:46 | 31.15095 | 121.81483 | 23 ft | 106 kts | 162° |
| 2026-04-30 12:46 | 31.14239 | 121.81807 | 27 ft | 150 kts | 162° |
| 2026-04-30 12:46 | 31.13129 | 121.82214 | 88 ft | 179 kts | 163° |
| 2026-04-30 12:46 | 31.11965 | 121.82644 | 679 ft | 173 kts | 162° |
| 2026-04-30 12:47 | 31.10827 | 121.83094 | 1213 ft | 173 kts | 162° |
| 2026-04-30 12:47 | 31.09687 | 121.83588 | 1696 ft | 177 kts | 154° |
| 2026-04-30 12:47 | 31.08669 | 121.84411 | 2140 ft | 179 kts | 144° |
| 2026-04-30 12:47 | 31.07665 | 121.85284 | 2589 ft | 181 kts | 146° |
| 2026-04-30 12:48 | 31.06641 | 121.86147 | 3034 ft | 182 kts | 146° |
| 2026-04-30 12:48 | 31.05584 | 121.87029 | 3309 ft | 195 kts | 146° |
| 2026-04-30 12:48 | 31.04436 | 121.87987 | 3506 ft | 210 kts | 145° |
| 2026-04-30 12:48 | 31.03200 | 121.89019 | 3655 ft | 228 kts | 145° |
| 2026-04-30 12:49 | 31.01844 | 121.90152 | 3764 ft | 254 kts | 145° |
| 2026-04-30 12:49 | 31.00425 | 121.91503 | 4136 ft | 271 kts | 137° |
| 2026-04-30 12:49 | 30.99019 | 121.93015 | 4757 ft | 278 kts | 136° |
| 2026-04-30 12:49 | 30.97585 | 121.94555 | 5445 ft | 283 kts | 136° |
| 2026-04-30 12:50 | 30.96117 | 121.96116 | 6138 ft | 288 kts | 136° |
| 2026-04-30 12:50 | 30.94694 | 121.97777 | 6793 ft | 292 kts | 124° |
| 2026-04-30 12:50 | 30.93826 | 121.99904 | 7385 ft | 293 kts | 99° |
| 2026-04-30 12:50 | 30.93738 | 122.02256 | 7958 ft | 292 kts | 76° |
| 2026-04-30 12:51 | 30.94303 | 122.04527 | 8545 ft | 294 kts | 67° |
| 2026-04-30 12:51 | 30.94955 | 122.06812 | 9149 ft | 300 kts | 67° |
| 2026-04-30 12:51 | 30.95617 | 122.09146 | 9711 ft | 307 kts | 67° |
| 2026-04-30 12:51 | 30.96290 | 122.11538 | 10263 ft | 314 kts | 67° |
| 2026-04-30 12:52 | 30.96992 | 122.14035 | 10426 ft | 335 kts | 67° |
| 2026-04-30 12:52 | 30.97737 | 122.16695 | 10558 ft | 356 kts | 68° |
| 2026-04-30 12:52 | 30.98523 | 122.19516 | 10676 ft | 376 kts | 68° |
| 2026-04-30 12:52 | 30.99346 | 122.22483 | 10786 ft | 394 kts | 69° |
| 2026-04-30 12:53 | 30.99939 | 122.25681 | 11039 ft | 412 kts | 81° |
| 2026-04-30 12:53 | 31.00021 | 122.29050 | 11500 ft | 420 kts | 88° |
| 2026-04-30 12:53 | 31.00005 | 122.32475 | 12008 ft | 424 kts | 87° |
| 2026-04-30 12:53 | 31.00000 | 122.35932 | 12511 ft | 429 kts | 88° |
| 2026-04-30 12:54 | 31.00002 | 122.39430 | 13006 ft | 434 kts | 88° |
| 2026-04-30 12:54 | 31.00006 | 122.42962 | 13495 ft | 438 kts | 87° |
| 2026-04-30 12:54 | 31.00015 | 122.46532 | 13973 ft | 443 kts | 87° |
| 2026-04-30 12:54 | 31.00032 | 122.50134 | 14386 ft | 447 kts | 87° |
| 2026-04-30 12:55 | 31.00046 | 122.53781 | 14782 ft | 452 kts | 87° |
| 2026-04-30 12:55 | 31.00055 | 122.57461 | 15174 ft | 457 kts | 87° |
| 2026-04-30 12:55 | 31.00060 | 122.61187 | 15592 ft | 462 kts | 87° |
| 2026-04-30 12:55 | 31.00061 | 122.64938 | 16041 ft | 465 kts | 88° |
| 2026-04-30 12:56 | 31.00057 | 122.68721 | 16455 ft | 469 kts | 88° |
| 2026-04-30 12:56 | 31.00052 | 122.72532 | 16848 ft | 473 kts | 88° |
| 2026-04-30 12:56 | 31.00046 | 122.76386 | 17232 ft | 477 kts | 88° |
| 2026-04-30 12:56 | 31.00042 | 122.80271 | 17612 ft | 482 kts | 87° |
| 2026-04-30 12:57 | 31.00039 | 122.84188 | 17989 ft | 486 kts | 87° |
| 2026-04-30 12:57 | 31.00035 | 122.88146 | 18365 ft | 490 kts | 87° |
| 2026-04-30 12:57 | 31.00047 | 122.92142 | 18607 ft | 496 kts | 85° |
| 2026-04-30 12:57 | 31.00409 | 122.96141 | 18879 ft | 497 kts | 76° |
| 2026-04-30 12:58 | 31.01266 | 123.00036 | 19198 ft | 495 kts | 66° |
| 2026-04-30 12:58 | 31.02597 | 123.03719 | 19544 ft | 492 kts | 57° |
| 2026-04-30 12:58 | 31.03724 | 123.06003 | 19762 ft | 489 kts | 50° |
| 2026-04-30 12:58 | 31.05685 | 123.09234 | 20097 ft | 489 kts | 47° |
| 2026-04-30 12:59 | 31.07684 | 123.12461 | 20433 ft | 493 kts | 47° |
| 2026-04-30 12:59 | 31.09688 | 123.15717 | 20881 ft | 494 kts | 48° |
| 2026-04-30 12:59 | 31.11690 | 123.18988 | 21207 ft | 497 kts | 49° |
| 2026-04-30 12:59 | 31.13706 | 123.22289 | 21507 ft | 501 kts | 49° |
| 2026-04-30 13:00 | 31.15732 | 123.25613 | 21809 ft | 505 kts | 49° |
| 2026-04-30 13:00 | 31.17774 | 123.28961 | 22114 ft | 508 kts | 49° |
| 2026-04-30 13:00 | 31.19833 | 123.32332 | 22415 ft | 511 kts | 49° |
| 2026-04-30 13:00 | 31.21904 | 123.35721 | 22705 ft | 515 kts | 49° |
| 2026-04-30 13:01 | 31.23988 | 123.39141 | 23002 ft | 518 kts | 49° |
| 2026-04-30 13:01 | 31.26076 | 123.42576 | 23407 ft | 519 kts | 49° |
| 2026-04-30 13:01 | 31.28166 | 123.46027 | 23735 ft | 522 kts | 49° |
| 2026-04-30 13:01 | 31.30270 | 123.49505 | 23978 ft | 525 kts | 49° |
| 2026-04-30 13:02 | 31.32381 | 123.52995 | 24186 ft | 527 kts | 49° |
| 2026-04-30 13:02 | 31.34507 | 123.56505 | 24430 ft | 530 kts | 49° |
| 2026-04-30 13:02 | 31.36653 | 123.60022 | 24662 ft | 532 kts | 49° |
| 2026-04-30 13:02 | 31.38818 | 123.63552 | 24901 ft | 535 kts | 49° |
| 2026-04-30 13:03 | 31.40995 | 123.67095 | 25222 ft | 537 kts | 49° |
| 2026-04-30 13:03 | 31.43173 | 123.70648 | 25481 ft | 539 kts | 50° |
| 2026-04-30 13:03 | 31.45362 | 123.74234 | 25649 ft | 543 kts | 50° |
| 2026-04-30 13:03 | 31.47560 | 123.77850 | 25860 ft | 546 kts | 50° |
| 2026-04-30 13:04 | 31.49765 | 123.81484 | 26119 ft | 548 kts | 50° |
| 2026-04-30 13:04 | 31.51968 | 123.85122 | 26432 ft | 548 kts | 50° |
| 2026-04-30 13:04 | 31.54174 | 123.88762 | 26725 ft | 548 kts | 50° |
| 2026-04-30 13:04 | 31.56389 | 123.92408 | 27023 ft | 549 kts | 50° |
| 2026-04-30 13:05 | 31.58588 | 123.96072 | 27277 ft | 551 kts | 53° |
| 2026-04-30 13:05 | 31.60494 | 124.00004 | 27418 ft | 560 kts | 62° |
| 2026-04-30 13:05 | 31.61939 | 124.04268 | 27572 ft | 565 kts | 72° |
| 2026-04-30 13:06 | 31.63936 | 124.13217 | 28098 ft | 568 kts | 75° |
| 2026-04-30 13:06 | 31.64927 | 124.17708 | 28385 ft | 569 kts | 75° |
| 2026-04-30 13:06 | 31.65931 | 124.22199 | 28616 ft | 569 kts | 76° |
| 2026-04-30 13:06 | 31.66947 | 124.26704 | 28784 ft | 573 kts | 76° |
| 2026-04-30 13:07 | 31.67967 | 124.31234 | 29133 ft | 573 kts | 76° |
| 2026-04-30 13:07 | 31.68981 | 124.35751 | 29522 ft | 571 kts | 76° |
| 2026-04-30 13:07 | 31.69984 | 124.40259 | 29837 ft | 571 kts | 76° |
| 2026-04-30 13:07 | 31.70981 | 124.44769 | 30119 ft | 571 kts | 76° |
| 2026-04-30 13:08 | 31.71975 | 124.49290 | 30309 ft | 572 kts | 77° |
| 2026-04-30 13:08 | 31.72965 | 124.53825 | 30465 ft | 574 kts | 77° |
| 2026-04-30 13:08 | 31.73954 | 124.58375 | 30688 ft | 575 kts | 77° |
| 2026-04-30 13:08 | 31.74942 | 124.62923 | 30946 ft | 574 kts | 77° |
| 2026-04-30 13:09 | 31.75930 | 124.67466 | 31066 ft | 573 kts | 77° |
| 2026-04-30 13:09 | 31.77910 | 124.76499 | 31070 ft | 569 kts | 77° |
| 2026-04-30 13:10 | 31.79883 | 124.85521 | 31088 ft | 570 kts | 77° |
| 2026-04-30 13:10 | 31.81753 | 124.94563 | 31086 ft | 568 kts | 83° |
| 2026-04-30 13:11 | 31.82169 | 125.03731 | 31095 ft | 558 kts | 101° |
| 2026-04-30 13:11 | 31.80936 | 125.12635 | 31084 ft | 550 kts | 109° |
| 2026-04-30 13:12 | 31.79495 | 125.21470 | 31081 ft | 550 kts | 109° |
| 2026-04-30 13:12 | 31.78053 | 125.30305 | 31069 ft | 552 kts | 109° |
| 2026-04-30 13:13 | 31.75848 | 125.43595 | 31074 ft | 552 kts | 109° |
| 2026-04-30 13:14 | 31.73641 | 125.56847 | 31038 ft | 548 kts | 110° |
| 2026-04-30 13:14 | 31.73133 | 125.70377 | 31051 ft | 570 kts | 85° |
| 2026-04-30 13:15 | 31.76038 | 125.84136 | 31070 ft | 580 kts | 79° |
| 2026-04-30 13:16 | 31.78051 | 125.93308 | 31076 ft | 580 kts | 79° |
| 2026-04-30 13:16 | 31.80033 | 126.02425 | 31068 ft | 579 kts | 79° |
| 2026-04-30 13:17 | 31.83006 | 126.16075 | 31031 ft | 572 kts | 79° |
| 2026-04-30 13:18 | 31.85952 | 126.29691 | 31054 ft | 576 kts | 79° |
| 2026-04-30 13:18 | 31.88919 | 126.43450 | 31103 ft | 579 kts | 79° |
| 2026-04-30 13:19 | 31.90893 | 126.52582 | 31001 ft | 574 kts | 80° |
| 2026-04-30 13:19 | 31.92906 | 126.61727 | 31052 ft | 579 kts | 79° |
| 2026-04-30 13:20 | 31.94947 | 126.70892 | 31055 ft | 578 kts | 79° |
| 2026-04-30 13:20 | 31.96968 | 126.80062 | 31006 ft | 578 kts | 79° |
| 2026-04-30 13:21 | 31.98968 | 126.89235 | 31070 ft | 578 kts | 80° |
| 2026-04-30 13:22 | 32.01953 | 127.02957 | 31008 ft | 576 kts | 80° |
| 2026-04-30 13:22 | 32.05575 | 127.16478 | 31012 ft | 582 kts | 68° |
| 2026-04-30 13:23 | 32.07232 | 127.20841 | 31118 ft | 584 kts | 68° |
| 2026-04-30 13:23 | 32.10534 | 127.29585 | 31510 ft | 585 kts | 69° |
| 2026-04-30 13:24 | 32.13825 | 127.38361 | 32015 ft | 585 kts | 69° |
| 2026-04-30 13:24 | 32.17116 | 127.47127 | 32528 ft | 584 kts | 69° |
| 2026-04-30 13:25 | 32.20409 | 127.55905 | 33066 ft | 583 kts | 69° |
| 2026-04-30 13:25 | 32.23681 | 127.64649 | 33618 ft | 581 kts | 70° |
| 2026-04-30 13:26 | 32.28557 | 127.77762 | 34143 ft | 584 kts | 70° |
| 2026-04-30 13:26 | 32.31808 | 127.86558 | 34597 ft | 582 kts | 70° |
| 2026-04-30 13:27 | 32.35051 | 127.95319 | 34958 ft | 582 kts | 70° |
| 2026-04-30 13:28 | 32.39924 | 128.08538 | 34995 ft | 585 kts | 71° |
| 2026-04-30 13:28 | 32.44781 | 128.21782 | 34970 ft | 585 kts | 71° |
| 2026-04-30 13:29 | 32.51254 | 128.39483 | 34988 ft | 586 kts | 71° |
| 2026-04-30 13:31 | 32.59268 | 128.61579 | 34974 ft | 583 kts | 71° |
| 2026-04-30 13:32 | 32.67060 | 128.83764 | 34981 ft | 577 kts | 80° |
| 2026-04-30 13:33 | 32.70864 | 129.02128 | 34944 ft | 573 kts | 83° |
| 2026-04-30 13:34 | 32.73697 | 129.15903 | 34927 ft | 572 kts | 84° |
| 2026-04-30 13:35 | 32.77412 | 129.34264 | 34941 ft | 571 kts | 84° |
| 2026-04-30 13:36 | 32.81097 | 129.52606 | 34921 ft | 570 kts | 84° |
| 2026-04-30 13:36 | 32.83849 | 129.66346 | 34876 ft | 569 kts | 84° |
| 2026-04-30 13:37 | 32.86548 | 129.80079 | 34872 ft | 567 kts | 85° |
| 2026-04-30 13:38 | 32.89195 | 129.93760 | 34841 ft | 566 kts | 85° |
| 2026-04-30 13:39 | 32.92717 | 130.11989 | 34914 ft | 564 kts | 85° |
| 2026-04-30 13:40 | 32.95046 | 130.24113 | 34900 ft | 564 kts | 85° |
| 2026-04-30 13:40 | 32.97074 | 130.34752 | 34867 ft | 563 kts | 85° |
| 2026-04-30 13:41 | 32.98504 | 130.42313 | 34875 ft | 563 kts | 85° |
| 2026-04-30 13:41 | 33.00216 | 130.51402 | 34869 ft | 562 kts | 85° |
| 2026-04-30 13:42 | 33.01935 | 130.60494 | 34878 ft | 562 kts | 85° |
| 2026-04-30 13:42 | 33.04496 | 130.74114 | 34879 ft | 561 kts | 85° |
| 2026-04-30 13:43 | 33.06183 | 130.83190 | 34908 ft | 561 kts | 85° |
| 2026-04-30 13:43 | 33.07865 | 130.92266 | 34838 ft | 561 kts | 85° |
| 2026-04-30 13:44 | 33.09544 | 131.01336 | 34852 ft | 560 kts | 85° |
| 2026-04-30 13:44 | 33.11216 | 131.10404 | 34855 ft | 560 kts | 85° |
| 2026-04-30 13:45 | 33.13708 | 131.24001 | 34863 ft | 559 kts | 85° |
| 2026-04-30 13:46 | 33.15352 | 131.33058 | 34869 ft | 559 kts | 85° |
| 2026-04-30 13:46 | 33.16995 | 131.42120 | 34832 ft | 558 kts | 85° |
| 2026-04-30 13:47 | 33.18627 | 131.51181 | 34845 ft | 558 kts | 85° |
| 2026-04-30 13:47 | 33.20251 | 131.60244 | 34830 ft | 558 kts | 85° |
| 2026-04-30 13:48 | 33.21930 | 131.69296 | 34844 ft | 561 kts | 80° |
| 2026-04-30 13:48 | 33.24696 | 131.78084 | 34830 ft | 567 kts | 72° |
| 2026-04-30 13:49 | 33.27668 | 131.86801 | 34875 ft | 567 kts | 72° |
| 2026-04-30 13:49 | 33.30622 | 131.95528 | 34872 ft | 566 kts | 72° |
| 2026-04-30 13:50 | 33.33565 | 132.04266 | 34846 ft | 566 kts | 72° |
| 2026-04-30 13:50 | 33.37980 | 132.17369 | 34872 ft | 567 kts | 72° |
| 2026-04-30 13:51 | 33.40925 | 132.26124 | 34850 ft | 567 kts | 72° |
| 2026-04-30 13:51 | 33.43858 | 132.34875 | 34876 ft | 567 kts | 72° |
| 2026-04-30 13:52 | 33.46787 | 132.43656 | 34839 ft | 567 kts | 72° |
| 2026-04-30 13:52 | 33.49703 | 132.52428 | 34852 ft | 567 kts | 72° |
| 2026-04-30 13:53 | 33.52608 | 132.61198 | 34901 ft | 567 kts | 72° |
| 2026-04-30 13:53 | 33.55499 | 132.69917 | 34863 ft | 566 kts | 72° |
| 2026-04-30 13:54 | 33.58421 | 132.78755 | 34881 ft | 566 kts | 72° |
| 2026-04-30 13:54 | 33.61309 | 132.87530 | 34903 ft | 566 kts | 72° |
| 2026-04-30 13:55 | 33.64183 | 132.96318 | 34889 ft | 565 kts | 75° |
| 2026-04-30 13:55 | 33.66428 | 133.05227 | 34858 ft | 560 kts | 78° |
| 2026-04-30 13:56 | 33.68592 | 133.14195 | 34897 ft | 559 kts | 79° |
| 2026-04-30 13:56 | 33.70745 | 133.23164 | 34856 ft | 559 kts | 79° |
| 2026-04-30 13:57 | 33.72898 | 133.32125 | 34880 ft | 558 kts | 79° |
| 2026-04-30 13:57 | 33.75046 | 133.41085 | 34893 ft | 557 kts | 79° |
| 2026-04-30 13:58 | 33.78239 | 133.54513 | 34894 ft | 557 kts | 79° |
| 2026-04-30 13:59 | 33.80350 | 133.63461 | 34843 ft | 557 kts | 79° |
| 2026-04-30 13:59 | 33.82458 | 133.72412 | 34912 ft | 556 kts | 79° |
| 2026-04-30 14:00 | 33.84559 | 133.81363 | 34896 ft | 556 kts | 79° |
| 2026-04-30 14:00 | 33.87710 | 133.94778 | 34874 ft | 555 kts | 79° |
| 2026-04-30 14:01 | 33.89792 | 134.03733 | 34871 ft | 556 kts | 79° |
| 2026-04-30 14:01 | 33.91876 | 134.12680 | 34896 ft | 555 kts | 79° |
| 2026-04-30 14:02 | 33.93950 | 134.21633 | 34900 ft | 555 kts | 79° |
| 2026-04-30 14:02 | 33.96012 | 134.30591 | 34909 ft | 555 kts | 79° |
| 2026-04-30 14:03 | 33.98065 | 134.39542 | 34925 ft | 554 kts | 79° |
| 2026-04-30 14:03 | 34.00111 | 134.48481 | 34914 ft | 553 kts | 79° |
| 2026-04-30 14:04 | 34.02153 | 134.57409 | 34942 ft | 553 kts | 79° |
| 2026-04-30 14:04 | 34.04178 | 134.66343 | 34924 ft | 552 kts | 79° |
| 2026-04-30 14:05 | 34.06179 | 134.75211 | 34925 ft | 552 kts | 79° |
| 2026-04-30 14:05 | 34.08189 | 134.84137 | 34933 ft | 552 kts | 79° |
| 2026-04-30 14:06 | 34.11210 | 134.97534 | 34914 ft | 552 kts | 79° |
| 2026-04-30 14:07 | 34.14197 | 135.10938 | 34912 ft | 551 kts | 79° |
| 2026-04-30 14:08 | 34.17174 | 135.24340 | 34921 ft | 551 kts | 79° |
| 2026-04-30 14:08 | 34.20134 | 135.37743 | 34928 ft | 551 kts | 79° |
| 2026-04-30 14:09 | 34.22099 | 135.46683 | 34919 ft | 550 kts | 79° |
| 2026-04-30 14:10 | 34.25030 | 135.60102 | 34906 ft | 550 kts | 79° |
| 2026-04-30 14:10 | 34.26974 | 135.69049 | 34920 ft | 550 kts | 79° |
| 2026-04-30 14:11 | 34.28919 | 135.77997 | 34943 ft | 550 kts | 78° |
| 2026-04-30 14:11 | 34.30856 | 135.86950 | 34959 ft | 550 kts | 79° |
| 2026-04-30 14:12 | 34.32782 | 135.95909 | 34967 ft | 550 kts | 79° |
| 2026-04-30 14:12 | 34.34704 | 136.04869 | 34985 ft | 550 kts | 79° |
| 2026-04-30 14:13 | 34.36617 | 136.13829 | 34994 ft | 550 kts | 79° |
| 2026-04-30 14:13 | 34.38517 | 136.22783 | 35005 ft | 550 kts | 79° |
| 2026-04-30 14:14 | 34.40411 | 136.31759 | 35003 ft | 550 kts | 79° |
| 2026-04-30 14:14 | 34.42310 | 136.40739 | 34992 ft | 551 kts | 79° |
| 2026-04-30 14:15 | 34.44202 | 136.49719 | 35005 ft | 550 kts | 79° |
| 2026-04-30 14:15 | 34.46065 | 136.58693 | 35016 ft | 549 kts | 79° |
| 2026-04-30 14:16 | 34.47924 | 136.67665 | 35020 ft | 549 kts | 79° |
| 2026-04-30 14:16 | 34.49777 | 136.76638 | 35022 ft | 549 kts | 79° |
| 2026-04-30 14:17 | 34.51641 | 136.85608 | 35026 ft | 548 kts | 79° |
| 2026-04-30 14:17 | 34.53442 | 136.94578 | 35024 ft | 545 kts | 84° |
| 2026-04-30 14:18 | 34.53941 | 137.03646 | 35036 ft | 537 kts | 95° |
| 2026-04-30 14:18 | 34.54037 | 137.17219 | 35031 ft | 536 kts | 95° |
| 2026-04-30 14:19 | 34.54133 | 137.30784 | 35037 ft | 536 kts | 95° |
| 2026-04-30 14:20 | 34.54179 | 137.39819 | 35048 ft | 536 kts | 95° |
| 2026-04-30 14:20 | 34.54242 | 137.53357 | 35024 ft | 534 kts | 95° |
| 2026-04-30 14:21 | 34.54278 | 137.62349 | 35065 ft | 532 kts | 95° |
| 2026-04-30 14:22 | 34.54326 | 137.75784 | 35068 ft | 530 kts | 95° |
| 2026-04-30 14:22 | 34.54342 | 137.89190 | 35084 ft | 530 kts | 96° |
| 2026-04-30 14:23 | 34.54347 | 138.07050 | 35071 ft | 529 kts | 96° |
| 2026-04-30 14:24 | 34.54332 | 138.15991 | 34626 ft | 530 kts | 96° |
| 2026-04-30 14:24 | 34.54319 | 138.20452 | 34282 ft | 529 kts | 96° |
| 2026-04-30 14:25 | 34.54289 | 138.27866 | 33661 ft | 529 kts | 96° |
| 2026-04-30 14:25 | 34.54748 | 138.36813 | 32894 ft | 538 kts | 82° |
| 2026-04-30 14:26 | 34.57144 | 138.45459 | 32151 ft | 546 kts | 64° |
| 2026-04-30 14:26 | 34.58862 | 138.49572 | 31790 ft | 547 kts | 64° |
| 2026-04-30 14:26 | 34.62283 | 138.57829 | 31086 ft | 548 kts | 64° |
| 2026-04-30 14:27 | 34.63983 | 138.61964 | 30730 ft | 548 kts | 64° |
| 2026-04-30 14:27 | 34.65684 | 138.66108 | 30397 ft | 548 kts | 64° |
| 2026-04-30 14:27 | 34.67386 | 138.70257 | 30028 ft | 550 kts | 64° |
| 2026-04-30 14:28 | 34.70402 | 138.78766 | 29231 ft | 546 kts | 76° |
| 2026-04-30 14:28 | 34.71221 | 138.83251 | 28840 ft | 542 kts | 85° |
| 2026-04-30 14:28 | 34.71538 | 138.87786 | 28428 ft | 536 kts | 94° |
| 2026-04-30 14:28 | 34.71525 | 138.92303 | 28045 ft | 535 kts | 95° |
| 2026-04-30 14:29 | 34.71487 | 139.01330 | 27298 ft | 533 kts | 94° |
| 2026-04-30 14:29 | 34.71449 | 139.10330 | 26572 ft | 532 kts | 94° |
| 2026-04-30 14:30 | 34.71380 | 139.23817 | 25499 ft | 531 kts | 94° |
| 2026-04-30 14:31 | 34.71315 | 139.32780 | 25087 ft | 529 kts | 94° |
| 2026-04-30 14:31 | 34.71955 | 139.41652 | 25060 ft | 521 kts | 76° |
| 2026-04-30 14:31 | 34.73220 | 139.45721 | 24725 ft | 510 kts | 63° |
| 2026-04-30 14:32 | 34.76544 | 139.52964 | 24012 ft | 472 kts | 61° |
| 2026-04-30 14:32 | 34.78120 | 139.56386 | 23661 ft | 456 kts | 61° |
| 2026-04-30 14:32 | 34.79636 | 139.59698 | 23238 ft | 441 kts | 61° |
| 2026-04-30 14:33 | 34.81099 | 139.62906 | 22828 ft | 427 kts | 61° |
| 2026-04-30 14:33 | 34.83893 | 139.69048 | 21935 ft | 405 kts | 61° |
| 2026-04-30 14:33 | 34.85243 | 139.72018 | 21431 ft | 397 kts | 61° |
| 2026-04-30 14:34 | 34.86560 | 139.74932 | 20953 ft | 389 kts | 63° |
| 2026-04-30 14:34 | 34.87437 | 139.77986 | 20469 ft | 378 kts | 83° |
| 2026-04-30 14:34 | 34.87453 | 139.81128 | 20000 ft | 366 kts | 103° |
| 2026-04-30 14:34 | 34.86804 | 139.84066 | 19526 ft | 357 kts | 110° |
| 2026-04-30 14:35 | 34.85368 | 139.89762 | 18613 ft | 347 kts | 110° |
| 2026-04-30 14:35 | 34.84664 | 139.92552 | 18124 ft | 343 kts | 109° |
| 2026-04-30 14:35 | 34.84083 | 139.95351 | 17600 ft | 340 kts | 98° |
| 2026-04-30 14:36 | 34.84064 | 139.98213 | 17093 ft | 338 kts | 83° |
| 2026-04-30 14:36 | 34.84384 | 140.01030 | 16599 ft | 334 kts | 83° |
| 2026-04-30 14:36 | 34.84697 | 140.03818 | 16100 ft | 331 kts | 83° |
| 2026-04-30 14:36 | 34.85004 | 140.06577 | 15617 ft | 327 kts | 83° |
| 2026-04-30 14:37 | 34.85371 | 140.09291 | 15132 ft | 324 kts | 75° |
| 2026-04-30 14:37 | 34.86210 | 140.11817 | 14660 ft | 321 kts | 60° |
| 2026-04-30 14:37 | 34.87304 | 140.14172 | 14199 ft | 318 kts | 61° |
| 2026-04-30 14:37 | 34.88389 | 140.16514 | 13711 ft | 316 kts | 61° |
| 2026-04-30 14:38 | 34.89459 | 140.18832 | 13236 ft | 312 kts | 62° |